createdAt,value
2023-01-08T00:00:41.510Z,87
2023-01-08T00:02:45.875Z,86
2023-01-08T00:04:43.038Z,86
2023-01-08T00:06:43.299Z,86
2023-01-08T00:08:43.430Z,86
2023-01-08T00:10:43.404Z,86
2023-01-08T00:14:46.056Z,86
2023-01-08T00:16:43.100Z,86
2023-01-08T00:18:42.943Z,86
2023-01-08T00:20:43.010Z,86
2023-01-08T00:22:41.622Z,87
2023-01-08T00:24:46.134Z,87
2023-01-08T00:26:46.395Z,87
2023-01-08T00:28:46.106Z,86
2023-01-08T00:32:43.050Z,87
2023-01-08T00:34:43.067Z,87
2023-01-08T00:36:42.993Z,87
2023-01-08T00:38:43.047Z,88
2023-01-08T00:40:42.948Z,88
2023-01-08T00:42:46.433Z,88
2023-01-08T00:44:42.949Z,88
2023-01-08T00:50:46.281Z,87
2023-01-08T00:52:43.450Z,87
2023-01-08T00:54:42.946Z,88
2023-01-08T00:56:46.148Z,88
2023-01-08T00:58:42.949Z,87
2023-01-08T01:00:43.309Z,88
2023-01-08T01:02:43.052Z,88
2023-01-08T01:04:46.432Z,88
2023-01-08T01:06:42.983Z,87
2023-01-08T01:08:42.094Z,87
2023-01-08T01:10:42.801Z,87
2023-01-08T01:12:42.994Z,87
2023-01-08T01:14:43.113Z,88
2023-01-08T01:16:49.257Z,88
2023-01-08T01:18:43.358Z,88
2023-01-08T01:20:42.984Z,88
2023-01-08T01:22:42.832Z,88
2023-01-08T01:26:42.962Z,88
2023-01-08T01:28:46.110Z,89
2023-01-08T01:30:43.051Z,88
2023-01-08T01:32:43.296Z,88
2023-01-08T01:34:42.930Z,88
2023-01-08T01:36:43.085Z,88
2023-01-08T01:38:42.967Z,88
2023-01-08T01:42:43.025Z,88
2023-01-08T01:44:43.137Z,88
2023-01-08T01:46:46.159Z,88
2023-01-08T01:48:42.950Z,88
2023-01-08T01:50:46.544Z,88
2023-01-08T01:52:42.960Z,88
2023-01-08T01:54:42.989Z,88
2023-01-08T01:56:42.961Z,88
2023-01-08T01:58:42.981Z,87
2023-01-08T02:00:43.108Z,88
2023-01-08T02:02:43.320Z,88
2023-01-08T02:04:43.092Z,87
2023-01-08T02:06:43.028Z,88
2023-01-08T02:10:43.036Z,87
2023-01-08T02:12:43.068Z,87
2023-01-08T02:14:45.900Z,87
2023-01-08T02:18:42.959Z,87
2023-01-08T02:20:42.948Z,87
2023-01-08T02:22:43.034Z,87
2023-01-08T02:24:44.594Z,87
2023-01-08T02:28:43.033Z,87
2023-01-08T02:30:42.999Z,86
2023-01-08T02:34:46.463Z,86
2023-01-08T02:36:43.510Z,86
2023-01-08T02:38:43.481Z,86
2023-01-08T02:42:43.072Z,85
2023-01-08T02:44:43.078Z,86
2023-01-08T02:46:42.981Z,85
2023-01-08T02:48:42.973Z,86
2023-01-08T02:50:46.514Z,85
2023-01-08T02:52:43.037Z,86
2023-01-08T02:54:41.602Z,86
2023-01-08T02:56:43.246Z,86
2023-01-08T02:58:43.006Z,86
2023-01-08T03:00:42.942Z,87
2023-01-08T03:02:42.983Z,87
2023-01-08T03:04:41.552Z,87
2023-01-08T03:06:46.278Z,87
2023-01-08T03:08:43.456Z,87
2023-01-08T03:10:46.261Z,87
2023-01-08T03:12:42.976Z,87
2023-01-08T03:14:42.097Z,87
2023-01-08T03:16:43.135Z,87
2023-01-08T03:18:43.041Z,86
2023-01-08T03:20:43.006Z,87
2023-01-08T03:24:42.987Z,87
2023-01-08T03:26:41.496Z,87
2023-01-08T03:28:45.849Z,87
2023-01-08T03:30:49.681Z,87
2023-01-08T03:32:44.617Z,87
2023-01-08T03:34:42.986Z,87
2023-01-08T03:36:42.838Z,86
2023-01-08T03:38:43.003Z,86
2023-01-08T03:40:46.146Z,86
2023-01-08T03:42:43.013Z,86
2023-01-08T03:44:43.291Z,86
2023-01-08T03:46:43.432Z,86
2023-01-08T03:48:43.010Z,86
2023-01-08T03:50:43.093Z,86
2023-01-08T03:52:43.031Z,86
2023-01-08T03:54:43.037Z,86
2023-01-08T03:56:41.510Z,86
2023-01-08T03:58:43.005Z,85
2023-01-08T04:00:46.092Z,85
2023-01-08T04:02:41.577Z,85
2023-01-08T04:08:46.142Z,85
2023-01-08T04:10:45.928Z,85
2023-01-08T04:12:46.732Z,86
2023-01-08T04:14:42.954Z,85
2023-01-08T04:18:42.973Z,85
2023-01-08T04:20:43.054Z,85
2023-01-08T04:22:44.680Z,85
2023-01-08T04:24:42.771Z,85
2023-01-08T04:26:44.634Z,86
2023-01-08T04:28:42.981Z,85
2023-01-08T04:30:43.014Z,85
2023-01-08T04:32:49.268Z,86
2023-01-08T04:34:41.469Z,86
2023-01-08T04:36:42.980Z,87
2023-01-08T04:38:46.007Z,87
2023-01-08T04:40:43.093Z,87
2023-01-08T04:42:42.823Z,87
2023-01-08T04:44:42.996Z,87
2023-01-08T04:46:43.071Z,87
2023-01-08T04:48:46.110Z,87
2023-01-08T04:50:45.967Z,87
2023-01-08T04:52:41.474Z,88
2023-01-08T04:56:41.561Z,88
2023-01-08T04:58:43.036Z,88
2023-01-08T05:00:43.028Z,87
2023-01-08T05:02:43.273Z,87
2023-01-08T05:04:42.990Z,87
2023-01-08T05:06:43.243Z,88
2023-01-08T05:12:43.341Z,87
2023-01-08T05:14:43.835Z,87
2023-01-08T05:16:42.974Z,87
2023-01-08T05:18:45.942Z,87
2023-01-08T05:20:41.542Z,87
2023-01-08T05:22:42.991Z,87
2023-01-08T05:24:43.090Z,87
2023-01-08T05:26:41.543Z,87
2023-01-08T05:28:42.995Z,87
2023-01-08T05:30:43.174Z,87
2023-01-08T05:32:42.996Z,87
2023-01-08T05:34:44.575Z,87
2023-01-08T05:36:42.972Z,87
2023-01-08T05:38:43.737Z,87
2023-01-08T05:40:43.002Z,86
2023-01-08T05:42:43.024Z,87
2023-01-08T05:44:43.392Z,87
2023-01-08T05:48:43.387Z,87
2023-01-08T05:50:43.327Z,87
2023-01-08T05:52:43.045Z,87
2023-01-08T05:54:43.002Z,87
2023-01-08T05:56:42.834Z,87
2023-01-08T05:58:42.969Z,86
2023-01-08T06:02:43.231Z,87
2023-01-08T06:04:43.460Z,87
2023-01-08T06:06:46.155Z,87
2023-01-08T06:08:43.565Z,88
2023-01-08T06:10:43.130Z,87
2023-01-08T06:12:41.522Z,88
2023-01-08T06:14:43.153Z,87
2023-01-08T06:16:41.594Z,87
2023-01-08T06:18:43.028Z,87
2023-01-08T06:20:45.983Z,86
2023-01-08T06:22:43.103Z,85
2023-01-08T06:24:44.717Z,85
2023-01-08T06:26:43.264Z,85
2023-01-08T06:28:46.140Z,85
2023-01-08T06:30:41.524Z,85
2023-01-08T06:32:43.072Z,85
2023-01-08T06:34:43.402Z,85
2023-01-08T06:36:43.018Z,84
2023-01-08T06:38:42.979Z,83
2023-01-08T06:40:49.550Z,83
2023-01-08T06:42:41.488Z,84
2023-01-08T06:44:41.550Z,84
2023-01-08T06:46:43.100Z,84
2023-01-08T06:50:46.225Z,85
2023-01-08T06:52:43.095Z,85
2023-01-08T06:56:53.167Z,85
2023-01-08T06:58:43.040Z,85
2023-01-08T07:00:43.442Z,85
2023-01-08T07:02:43.050Z,85
2023-01-08T07:04:43.455Z,85
2023-01-08T07:06:43.091Z,85
2023-01-08T07:08:43.097Z,85
2023-01-08T07:10:43.055Z,84
2023-01-08T07:12:43.028Z,84
2023-01-08T07:14:42.864Z,84
2023-01-08T07:16:44.770Z,84
2023-01-08T07:18:43.079Z,84
2023-01-08T07:20:43.002Z,84
2023-01-08T07:22:41.595Z,84
2023-01-08T07:24:41.507Z,84
2023-01-08T07:26:43.063Z,84
2023-01-08T07:28:43.050Z,84
2023-01-08T07:30:43.458Z,84
2023-01-08T07:32:43.111Z,84
2023-01-08T07:34:43.145Z,84
2023-01-08T07:36:43.066Z,84
2023-01-08T07:38:43.102Z,84
2023-01-08T07:40:42.995Z,84
2023-01-08T07:42:42.986Z,84
2023-01-08T07:44:43.048Z,84
2023-01-08T07:46:43.097Z,84
2023-01-08T07:48:43.003Z,84
2023-01-08T07:50:46.179Z,84
2023-01-08T07:52:43.347Z,84
2023-01-08T07:54:45.950Z,84
2023-01-08T07:56:43.119Z,84
2023-01-08T07:58:43.102Z,84
2023-01-08T08:00:43.376Z,84
2023-01-08T08:04:43.036Z,84
2023-01-08T08:06:43.031Z,84
2023-01-08T08:08:43.174Z,84
2023-01-08T08:12:46.501Z,84
2023-01-08T08:14:43.167Z,84
2023-01-08T08:16:41.568Z,84
2023-01-08T08:18:43.035Z,83
2023-01-08T08:20:43.533Z,83
2023-01-08T08:24:43.459Z,83
2023-01-08T08:26:43.124Z,83
2023-01-08T08:28:42.938Z,83
2023-01-08T08:30:43.084Z,82
2023-01-08T08:32:43.149Z,82
2023-01-08T08:34:43.521Z,82
2023-01-08T08:36:43.051Z,82
2023-01-08T08:38:46.162Z,82
2023-01-08T08:40:43.103Z,82
2023-01-08T08:42:43.101Z,82
2023-01-08T08:44:43.212Z,82
2023-01-08T08:48:43.067Z,81
2023-01-08T08:50:46.212Z,82
2023-01-08T08:52:43.009Z,81
2023-01-08T08:54:43.359Z,81
2023-01-08T08:56:43.121Z,81
2023-01-08T08:58:43.048Z,80
2023-01-08T09:00:43.200Z,81
2023-01-08T09:02:46.103Z,81
2023-01-08T09:04:42.830Z,82
2023-01-08T09:06:43.560Z,82
2023-01-08T09:08:43.011Z,82
2023-01-08T09:10:43.498Z,81
2023-01-08T09:12:43.341Z,81
2023-01-08T09:14:41.548Z,81
2023-01-08T09:16:41.591Z,81
2023-01-08T09:18:41.558Z,81
2023-01-08T09:20:41.552Z,81
2023-01-08T09:22:43.066Z,81
2023-01-08T09:24:43.374Z,81
2023-01-08T09:26:49.156Z,81
2023-01-08T09:28:47.789Z,81
2023-01-08T09:30:43.156Z,80
2023-01-08T09:32:43.641Z,81
2023-01-08T09:36:43.428Z,80
2023-01-08T09:38:43.207Z,81
2023-01-08T09:40:46.267Z,80
2023-01-08T09:42:46.271Z,80
2023-01-08T09:44:42.993Z,80
2023-01-08T09:46:43.197Z,80
2023-01-08T09:48:43.137Z,80
2023-01-08T09:52:43.837Z,79
2023-01-08T09:54:43.071Z,79
2023-01-08T09:56:43.128Z,79
2023-01-08T09:58:43.065Z,79
2023-01-08T10:00:43.295Z,79
2023-01-08T10:04:43.019Z,79
2023-01-08T10:06:41.589Z,80
2023-01-08T10:10:46.191Z,80
2023-01-08T10:12:43.128Z,80
2023-01-08T10:14:41.573Z,80
2023-01-08T10:16:43.122Z,80
2023-01-08T10:18:43.090Z,80
2023-01-08T10:20:43.397Z,81
2023-01-08T10:22:46.194Z,81
2023-01-08T10:24:43.051Z,81
2023-01-08T10:26:41.501Z,81
2023-01-08T10:28:43.114Z,81
2023-01-08T10:30:41.530Z,81
2023-01-08T10:32:43.028Z,81
2023-01-08T10:34:43.526Z,81
2023-01-08T10:36:43.182Z,82
2023-01-08T10:38:41.585Z,82
2023-01-08T10:40:43.216Z,82
2023-01-08T10:44:41.613Z,83
2023-01-08T10:46:43.077Z,83
2023-01-08T10:48:43.093Z,84
2023-01-08T10:50:41.554Z,84
2023-01-08T10:52:41.533Z,84
2023-01-08T10:54:43.651Z,84
2023-01-08T10:56:46.464Z,84
2023-01-08T10:58:43.071Z,84
2023-01-08T11:00:43.075Z,83
2023-01-08T11:02:43.107Z,83
2023-01-08T11:04:43.109Z,83
2023-01-08T11:06:43.401Z,82
2023-01-08T11:08:43.077Z,82
2023-01-08T11:10:43.056Z,82
2023-01-08T11:12:45.943Z,83
2023-01-08T11:14:43.067Z,83
2023-01-08T11:16:43.072Z,83
2023-01-08T11:18:41.622Z,83
2023-01-08T11:20:43.041Z,83
2023-01-08T11:22:43.075Z,84
2023-01-08T11:24:43.028Z,84
2023-01-08T11:26:41.555Z,84
2023-01-08T11:28:43.070Z,84
2023-01-08T11:30:43.039Z,83
2023-01-08T11:32:46.785Z,83
2023-01-08T11:34:49.295Z,84
2023-01-08T11:36:43.303Z,84
2023-01-08T11:38:45.886Z,83
2023-01-08T11:42:43.384Z,83
2023-01-08T11:44:43.135Z,83
2023-01-08T11:46:42.818Z,84
2023-01-08T11:48:43.152Z,83
2023-01-08T11:50:43.032Z,83
2023-01-08T11:52:43.066Z,83
2023-01-08T11:54:43.075Z,83
2023-01-08T11:56:43.519Z,83
2023-01-08T11:58:43.084Z,83
2023-01-08T12:00:43.128Z,83
2023-01-08T12:02:43.056Z,83
2023-01-08T12:04:43.055Z,83
2023-01-08T12:06:43.467Z,83
2023-01-08T12:08:43.132Z,83
2023-01-08T12:10:43.045Z,83
2023-01-08T12:12:43.056Z,84
2023-01-08T12:14:43.058Z,84
2023-01-08T12:16:43.232Z,84
2023-01-08T12:18:45.993Z,84
2023-01-08T12:20:43.099Z,84
2023-01-08T12:22:43.081Z,84
2023-01-08T12:24:43.054Z,84
2023-01-08T12:26:43.057Z,83
2023-01-08T12:28:41.551Z,83
2023-01-08T12:30:43.123Z,83
2023-01-08T12:32:46.026Z,83
2023-01-08T12:34:46.217Z,83
2023-01-08T12:36:46.218Z,83
2023-01-08T12:38:43.071Z,83
2023-01-08T12:40:43.141Z,83
2023-01-08T12:42:47.111Z,83
2023-01-08T12:44:43.127Z,83
2023-01-08T12:46:43.121Z,83
2023-01-08T12:48:42.947Z,83
2023-01-08T12:50:43.054Z,83
2023-01-08T12:52:41.582Z,83
2023-01-08T12:54:43.148Z,83
2023-01-08T12:56:43.098Z,83
2023-01-08T12:58:46.229Z,84
2023-01-08T13:00:43.129Z,83
2023-01-08T13:02:41.997Z,83
2023-01-08T13:04:46.206Z,83
2023-01-08T13:06:41.514Z,84
2023-01-08T13:08:43.220Z,84
2023-01-08T13:10:43.115Z,84
2023-01-08T13:12:43.001Z,84
2023-01-08T13:16:43.160Z,84
2023-01-08T13:18:43.061Z,83
2023-01-08T13:20:43.386Z,84
2023-01-08T13:22:43.078Z,84
2023-01-08T13:24:43.519Z,83
2023-01-08T13:26:43.618Z,83
2023-01-08T13:28:43.555Z,83
2023-01-08T13:30:43.171Z,83
2023-01-08T13:32:46.078Z,83
2023-01-08T13:34:41.597Z,83
2023-01-08T13:36:43.145Z,83
2023-01-08T13:40:43.103Z,83
2023-01-08T13:42:43.046Z,83
2023-01-08T13:44:43.077Z,83
2023-01-08T13:46:45.980Z,84
2023-01-08T13:48:46.035Z,84
2023-01-08T13:50:44.673Z,84
2023-01-08T13:52:43.232Z,84
2023-01-08T13:54:43.112Z,84
2023-01-08T13:56:43.157Z,84
2023-01-08T13:58:43.154Z,84
2023-01-08T14:00:43.153Z,84
2023-01-08T14:02:43.198Z,84
2023-01-08T14:04:41.573Z,84
2023-01-08T14:06:46.472Z,84
2023-01-08T14:08:43.121Z,84
2023-01-08T14:10:43.065Z,84
2023-01-08T14:12:44.815Z,84
2023-01-08T14:19:16.714Z,84
2023-01-08T14:21:15.643Z,85
2023-01-08T14:23:15.393Z,85
2023-01-08T14:25:15.268Z,85
2023-01-08T14:27:15.436Z,85
2023-01-08T14:29:15.412Z,84
2023-01-08T14:31:18.368Z,84
2023-01-08T14:35:18.223Z,85
2023-01-08T14:37:18.265Z,85
2023-01-08T14:39:15.429Z,86
2023-01-08T14:41:18.872Z,86
2023-01-08T14:43:15.324Z,86
2023-01-08T14:45:18.328Z,86
2023-01-08T14:49:15.302Z,86
2023-01-08T14:51:18.597Z,86
2023-01-08T14:53:15.424Z,87
2023-01-08T14:55:17.522Z,86
2023-01-08T14:57:15.431Z,87
2023-01-08T14:59:15.673Z,88
2023-01-08T15:01:18.975Z,87
2023-01-08T15:03:15.367Z,87
2023-01-08T15:05:14.872Z,87
2023-01-08T15:07:15.699Z,87
2023-01-08T15:09:18.083Z,88
2023-01-08T15:11:18.618Z,87
2023-01-08T15:13:15.400Z,87
2023-01-08T15:15:21.455Z,88
2023-01-08T15:17:18.585Z,88
2023-01-08T15:19:16.909Z,88
2023-01-08T15:21:15.563Z,88
2023-01-08T15:23:17.885Z,88
2023-01-08T15:25:15.327Z,88
2023-01-08T15:27:15.389Z,88
2023-01-08T15:29:21.992Z,88
2023-01-08T15:31:15.491Z,88
2023-01-08T15:33:16.822Z,88
2023-01-08T15:35:16.358Z,88
2023-01-08T15:37:21.411Z,88
2023-01-08T15:39:15.302Z,88
2023-01-08T15:41:15.337Z,88
2023-01-08T15:43:18.531Z,88
2023-01-08T15:45:15.470Z,88
2023-01-08T15:47:15.445Z,88
2023-01-08T15:49:18.537Z,88
2023-01-08T15:51:18.604Z,88
2023-01-08T15:53:18.223Z,88
2023-01-08T15:55:21.766Z,88
2023-01-08T15:57:15.343Z,88
2023-01-08T15:59:15.136Z,88
2023-01-08T16:01:15.375Z,88
2023-01-08T16:03:15.329Z,88
2023-01-08T16:05:18.534Z,88
2023-01-08T16:07:15.400Z,88
2023-01-08T16:09:15.464Z,88
2023-01-08T16:11:17.881Z,89
2023-01-08T16:13:15.401Z,89
2023-01-08T16:15:15.436Z,89
2023-01-08T16:17:18.320Z,89
2023-01-08T16:19:18.719Z,89
2023-01-08T16:21:16.894Z,89
2023-01-08T16:23:15.391Z,89
2023-01-08T16:25:15.416Z,89
2023-01-08T16:27:15.323Z,89
2023-01-08T16:29:15.395Z,89
2023-01-08T16:31:15.436Z,89
2023-01-08T16:33:15.460Z,89
2023-01-08T16:35:15.353Z,90
2023-01-08T16:39:15.108Z,90
2023-01-08T16:41:15.364Z,90
2023-01-08T16:43:14.632Z,90
2023-01-08T16:45:18.534Z,90
2023-01-08T16:47:15.381Z,90
2023-01-08T16:49:15.420Z,90
2023-01-08T16:51:15.373Z,90
2023-01-08T16:53:15.643Z,90
2023-01-08T16:55:18.083Z,90
2023-01-08T16:57:17.980Z,90
2023-01-08T17:01:15.907Z,90
2023-01-08T17:03:15.884Z,90
2023-01-08T17:05:17.754Z,90
2023-01-08T17:09:15.426Z,90
2023-01-08T17:11:18.177Z,90
2023-01-08T17:13:15.338Z,90
2023-01-08T17:15:17.204Z,90
2023-01-08T17:17:15.299Z,90
2023-01-08T17:19:15.436Z,89
2023-01-08T17:21:13.744Z,90
2023-01-08T17:23:15.331Z,90
2023-01-08T17:25:16.873Z,90
2023-01-08T17:27:15.437Z,90
2023-01-08T17:31:15.453Z,90
2023-01-08T17:33:18.546Z,90
2023-01-08T17:35:15.272Z,90
2023-01-08T17:37:15.457Z,89
2023-01-08T17:39:18.532Z,89
2023-01-08T17:41:15.358Z,89
2023-01-08T17:43:15.412Z,89
2023-01-08T17:45:15.326Z,89
2023-01-08T17:47:21.836Z,89
2023-01-08T17:49:18.518Z,89
2023-01-08T17:51:15.405Z,89
2023-01-08T17:53:15.516Z,89
2023-01-08T17:55:15.446Z,89
2023-01-08T17:57:15.325Z,89
2023-01-08T17:59:15.517Z,88
2023-01-08T18:01:15.413Z,88
2023-01-08T18:03:13.935Z,88
2023-01-08T18:05:15.443Z,88
2023-01-08T18:07:18.846Z,88
2023-01-08T18:11:15.287Z,88
2023-01-08T18:13:16.487Z,87
2023-01-08T18:15:18.379Z,87
2023-01-08T18:17:15.383Z,87
2023-01-08T18:19:15.481Z,86
2023-01-08T18:21:15.181Z,86
2023-01-08T18:23:12.438Z,86
2023-01-08T18:25:15.413Z,86
2023-01-08T18:27:17.757Z,86
2023-01-08T18:29:15.306Z,86
2023-01-08T18:31:15.443Z,85
2023-01-08T18:33:15.556Z,85
2023-01-08T18:35:15.571Z,85
2023-01-08T18:37:14.905Z,85
2023-01-08T18:39:15.461Z,86
2023-01-08T18:41:18.114Z,85
2023-01-08T18:43:14.917Z,86
2023-01-08T18:45:14.876Z,86
2023-01-08T18:49:12.093Z,86
2023-01-08T18:51:15.704Z,85
2023-01-08T18:53:14.967Z,86
2023-01-08T18:55:12.131Z,86
2023-01-08T18:57:15.002Z,86
2023-01-08T18:59:15.047Z,86
2023-01-08T19:01:15.041Z,86
2023-01-08T19:03:15.013Z,86
2023-01-08T19:05:14.976Z,86
2023-01-08T19:07:14.988Z,86
2023-01-08T19:09:15.060Z,86
2023-01-08T19:11:17.902Z,86
2023-01-08T19:13:17.793Z,86
2023-01-08T19:15:17.888Z,86
2023-01-08T19:17:14.931Z,86
2023-01-08T19:19:14.961Z,86
2023-01-08T19:21:15.078Z,86
2023-01-08T19:25:15.895Z,86
2023-01-08T19:27:14.957Z,87
2023-01-08T19:29:14.936Z,87
2023-01-08T19:31:14.982Z,87
2023-01-08T19:33:14.988Z,87
2023-01-08T19:35:14.864Z,87
2023-01-08T19:37:18.157Z,87
2023-01-08T19:39:18.171Z,87
2023-01-08T19:41:14.914Z,87
2023-01-08T19:43:14.971Z,87
2023-01-08T19:45:15.021Z,88
2023-01-08T19:47:14.947Z,88
2023-01-08T19:49:15.014Z,88
2023-01-08T19:51:15.029Z,88
2023-01-08T19:53:14.931Z,88
2023-01-08T19:55:14.999Z,88
2023-01-08T19:57:15.026Z,88
2023-01-08T19:59:15.052Z,88
2023-01-08T20:01:18.019Z,88
2023-01-08T20:03:15.029Z,88
2023-01-08T20:05:15.432Z,88
2023-01-08T20:07:14.989Z,88
2023-01-08T20:09:15.009Z,88
2023-01-08T20:11:17.927Z,88
2023-01-08T20:13:15.011Z,88
2023-01-08T20:15:15.000Z,88
2023-01-08T20:17:16.592Z,88
2023-01-08T20:19:15.010Z,88
2023-01-08T20:21:14.968Z,88
2023-01-08T20:25:18.096Z,87
2023-01-08T20:27:14.998Z,88
2023-01-08T20:29:17.869Z,88
2023-01-08T20:31:15.060Z,89
2023-01-08T20:33:16.593Z,89
2023-01-08T20:35:15.031Z,90
2023-01-08T20:37:14.935Z,89
2023-01-08T20:39:14.924Z,90
2023-01-08T20:41:14.984Z,89
2023-01-08T20:43:15.007Z,90
2023-01-08T20:47:18.134Z,90
2023-01-08T20:49:16.643Z,90
2023-01-08T20:51:18.136Z,90
2023-01-08T20:53:17.936Z,90
2023-01-08T20:55:15.366Z,89
2023-01-08T20:57:14.998Z,89
2023-01-08T21:01:15.105Z,89
2023-01-08T21:03:12.267Z,88
2023-01-08T21:05:15.014Z,88
2023-01-08T21:07:15.133Z,88
2023-01-08T21:09:18.464Z,88
2023-01-08T21:11:18.091Z,88
2023-01-08T21:13:14.949Z,88
2023-01-08T21:15:14.949Z,88
2023-01-08T21:17:15.272Z,88
2023-01-08T21:19:15.274Z,88
2023-01-08T21:21:15.023Z,88
2023-01-08T21:23:14.990Z,89
2023-01-08T21:27:15.019Z,89
2023-01-08T21:31:12.358Z,88
2023-01-08T21:33:15.052Z,88
2023-01-08T21:35:18.127Z,88
2023-01-08T21:37:14.981Z,88
2023-01-08T21:39:12.284Z,88
2023-01-08T21:41:15.883Z,88
2023-01-08T21:43:14.665Z,88
2023-01-08T21:45:14.923Z,88
2023-01-08T21:47:14.950Z,88
2023-01-08T21:49:14.986Z,89
2023-01-08T21:51:15.050Z,89
2023-01-08T21:53:15.363Z,89
2023-01-08T21:55:18.169Z,89
2023-01-08T21:57:15.003Z,89
2023-01-08T21:59:18.152Z,89
2023-01-08T22:01:15.087Z,89
2023-01-08T22:03:18.428Z,89
2023-01-08T22:05:14.959Z,89
2023-01-08T22:07:15.494Z,89
2023-01-08T22:09:13.414Z,89
2023-01-08T22:11:14.999Z,89
2023-01-08T22:13:18.069Z,89
2023-01-08T22:15:18.442Z,89
2023-01-08T22:17:14.954Z,89
2023-01-08T22:21:15.391Z,89
2023-01-08T22:23:15.958Z,89
2023-01-08T22:25:18.153Z,89
2023-01-08T22:27:18.179Z,89
2023-01-08T22:29:14.804Z,89
2023-01-08T22:31:14.943Z,89
2023-01-08T22:33:15.021Z,89
2023-01-08T22:35:14.956Z,89
2023-01-08T22:37:14.895Z,89
2023-01-08T22:39:14.755Z,89
2023-01-08T22:41:14.872Z,89
2023-01-08T22:43:14.959Z,89
2023-01-08T22:45:18.177Z,89
2023-01-08T22:47:15.137Z,90
2023-01-08T22:49:12.117Z,90
2023-01-08T22:51:14.971Z,89
2023-01-08T22:53:16.641Z,89
2023-01-08T22:55:15.169Z,90
2023-01-08T22:57:18.119Z,90
2023-01-08T22:59:15.021Z,90
2023-01-08T23:01:18.346Z,90
2023-01-08T23:03:15.003Z,90
2023-01-08T23:05:14.965Z,90
2023-01-08T23:09:15.066Z,90
2023-01-08T23:11:14.990Z,90
2023-01-08T23:13:15.047Z,90
2023-01-08T23:15:13.497Z,90
2023-01-08T23:17:13.464Z,90
2023-01-08T23:19:14.848Z,90
2023-01-08T23:21:15.014Z,90
2023-01-08T23:23:14.961Z,90
2023-01-08T23:25:15.016Z,90
2023-01-08T23:27:12.260Z,90
2023-01-08T23:33:17.876Z,90
2023-01-08T23:35:14.991Z,90
2023-01-08T23:37:21.601Z,90
2023-01-08T23:39:15.035Z,90
2023-01-08T23:41:15.010Z,90
2023-01-08T23:43:21.145Z,90
2023-01-08T23:45:15.592Z,90
2023-01-08T23:49:15.078Z,90
2023-01-08T23:51:17.899Z,90
2023-01-08T23:53:15.279Z,90
2023-01-08T23:55:15.015Z,90
2023-01-08T23:57:14.994Z,90
2023-01-08T23:59:14.941Z,90
